createdAt,value
2023-09-18T05:37:12.527Z,8.52
2023-09-18T05:39:42.536Z,8.48
2023-09-18T05:42:14.925Z,7.65
2023-09-18T05:44:50.971Z,7.72
2023-09-18T05:47:19.471Z,6.53
2023-09-18T05:49:56.593Z,6.82
2023-09-18T05:52:30.668Z,6.25
2023-09-18T05:55:06.661Z,6.00
2023-09-18T05:57:42.889Z,6.22
2023-09-18T06:00:14.537Z,5.70
2023-09-18T06:02:49.158Z,5.10
2023-09-18T06:05:31.698Z,5.35
2023-09-18T06:08:10.222Z,4.72
2023-09-18T06:10:42.886Z,5.60
2023-09-18T06:13:10.604Z,6.05
2023-09-18T06:15:53.622Z,5.63
2023-09-18T06:18:26.110Z,4.82
2023-09-18T06:20:56.792Z,4.88
2023-09-18T06:23:35.410Z,5.18
2023-09-18T06:26:09.014Z,4.97
2023-09-18T06:28:40.077Z,4.78
2023-09-18T06:31:24.900Z,4.78
2023-09-18T06:34:09.120Z,4.82
2023-09-18T06:36:38.099Z,4.45
2023-09-18T06:39:07.001Z,4.40
2023-09-18T06:41:37.103Z,4.60
2023-09-18T06:44:15.402Z,4.30
2023-09-18T06:46:45.765Z,4.83
2023-09-18T06:49:15.626Z,4.13
2023-09-18T06:51:50.782Z,4.10
2023-09-18T06:54:18.234Z,4.07
2023-09-18T06:56:53.947Z,3.90
2023-09-18T06:59:21.482Z,3.78
2023-09-18T07:01:54.978Z,3.92
2023-09-18T07:04:22.491Z,3.47
2023-09-18T07:06:57.212Z,4.10
2023-09-18T07:09:26.926Z,3.65
2023-09-18T07:11:57.448Z,3.58
2023-09-18T07:14:31.514Z,4.07
2023-09-18T07:17:02.707Z,3.80
2023-09-18T07:19:33.106Z,4.03
2023-09-18T07:22:04.188Z,3.78
2023-09-18T07:24:35.131Z,3.55
2023-09-18T07:27:06.188Z,3.47
2023-09-18T07:29:39.374Z,3.58
2023-09-18T07:32:07.888Z,3.83
2023-09-18T07:34:42.841Z,3.80
2023-09-18T07:37:10.197Z,3.85
2023-09-18T07:39:46.243Z,5.05
2023-09-18T07:42:13.811Z,4.10
2023-09-18T07:44:43.809Z,3.85
2023-09-18T07:47:11.157Z,3.72
2023-09-18T07:49:40.793Z,3.60
2023-09-18T07:52:08.322Z,3.50
2023-09-18T07:54:35.746Z,4.03
2023-09-18T07:57:03.192Z,3.42
2023-09-18T07:59:31.702Z,3.75
2023-09-18T08:01:59.952Z,3.75
2023-09-18T08:04:27.493Z,3.40
2023-09-18T08:06:54.982Z,3.30
2023-09-18T08:09:25.163Z,3.78
2023-09-18T08:11:56.441Z,3.65
2023-09-18T08:14:24.509Z,3.60
2023-09-18T08:16:58.456Z,3.28
2023-09-18T08:19:30.390Z,3.53
2023-09-18T08:21:58.401Z,3.55
2023-09-18T08:24:25.826Z,3.72
2023-09-18T08:26:53.513Z,4.05
2023-09-18T08:29:23.610Z,3.75
2023-09-18T08:31:54.833Z,3.40
2023-09-18T08:34:29.481Z,3.60
2023-09-18T08:36:57.049Z,3.42
2023-09-18T08:39:25.848Z,4.03
2023-09-18T08:41:59.260Z,3.38
2023-09-18T08:44:30.277Z,3.53
2023-09-18T08:46:58.079Z,3.45
2023-09-18T08:49:25.724Z,3.58
2023-09-18T08:51:53.286Z,3.55
2023-09-18T08:54:24.801Z,3.10
2023-09-18T08:57:00.584Z,3.30
2023-09-18T08:59:30.799Z,3.08
2023-09-18T09:02:01.253Z,3.30
2023-09-18T09:04:28.794Z,3.00
2023-09-18T09:07:00.244Z,3.42
2023-09-18T09:09:29.423Z,3.28
2023-09-18T09:11:56.813Z,3.08
2023-09-18T09:14:33.471Z,3.20
2023-09-18T09:17:01.050Z,2.80
2023-09-18T09:19:34.085Z,3.20
2023-09-18T09:22:02.475Z,3.25
2023-09-18T09:24:44.892Z,3.38
2023-09-18T09:27:13.975Z,3.53
2023-09-18T09:29:41.595Z,3.15
2023-09-18T09:32:20.181Z,3.53
2023-09-18T09:34:47.883Z,4.30
2023-09-18T09:37:18.368Z,3.80
2023-09-18T09:39:49.892Z,3.55
2023-09-18T09:42:19.675Z,3.58
2023-09-18T09:44:47.296Z,3.40
2023-09-18T09:47:19.029Z,3.53
2023-09-18T09:49:57.683Z,3.00
2023-09-18T09:52:27.708Z,3.63
2023-09-18T09:54:55.136Z,3.58
2023-09-18T09:57:26.488Z,3.45
2023-09-18T10:00:11.845Z,3.58
2023-09-18T10:02:39.362Z,2.85
2023-09-18T10:05:20.297Z,3.40
2023-09-18T10:07:50.655Z,3.13
2023-09-18T10:10:20.863Z,3.35
2023-09-18T10:12:56.384Z,3.50
2023-09-18T10:15:24.678Z,3.50
2023-09-18T10:17:58.376Z,3.72
2023-09-18T10:20:29.772Z,3.97
2023-09-18T10:22:58.786Z,3.05
2023-09-18T10:25:30.216Z,3.53
2023-09-18T10:27:59.827Z,3.03
2023-09-18T10:30:28.138Z,3.40
2023-09-18T10:33:01.861Z,3.45
2023-09-18T10:35:29.776Z,2.95
2023-09-18T10:37:59.242Z,2.92
2023-09-18T10:40:30.136Z,3.50
2023-09-18T10:42:59.511Z,3.22
2023-09-18T10:45:27.541Z,3.00
2023-09-18T10:47:58.567Z,3.13
2023-09-18T10:50:28.805Z,3.00
2023-09-18T10:52:59.944Z,3.40
2023-09-18T10:55:27.627Z,2.80
2023-09-18T10:57:59.969Z,3.25
2023-09-18T11:00:29.071Z,3.20
2023-09-18T11:03:11.580Z,3.13
2023-09-18T11:05:40.586Z,3.17
2023-09-18T11:08:29.416Z,3.42
2023-09-18T11:10:57.856Z,2.83
2023-09-18T11:13:36.630Z,2.95
2023-09-18T11:16:05.819Z,3.00
2023-09-18T11:18:39.281Z,2.80
2023-09-18T11:21:13.263Z,3.30
2023-09-18T11:23:44.570Z,3.55
2023-09-18T11:26:12.525Z,2.85
2023-09-18T11:28:40.384Z,3.20
2023-09-18T11:31:10.850Z,2.72
2023-09-18T11:33:44.510Z,3.42
2023-09-18T11:36:16.290Z,3.15
2023-09-18T11:38:58.361Z,3.28
2023-09-18T11:41:26.787Z,2.97
2023-09-18T11:43:55.367Z,2.85
2023-09-18T11:46:23.340Z,2.90
2023-09-18T11:48:52.995Z,2.78
2023-09-18T11:51:30.796Z,2.90
2023-09-18T11:53:59.446Z,3.33
2023-09-18T11:56:26.794Z,3.90
2023-09-18T11:58:56.038Z,3.38
2023-09-18T12:01:25.819Z,2.85
2023-09-18T12:04:09.514Z,2.72
2023-09-18T12:06:37.885Z,3.20
2023-09-18T12:09:08.319Z,3.08
2023-09-18T12:11:40.291Z,2.67
2023-09-18T12:14:07.844Z,2.50
2023-09-18T12:16:41.589Z,2.83
2023-09-18T12:19:09.383Z,2.55
2023-09-18T12:21:46.515Z,2.83
2023-09-18T12:24:17.307Z,2.40
2023-09-18T12:26:44.748Z,2.20
2023-09-18T12:29:13.122Z,2.50
2023-09-18T12:31:40.654Z,2.47
2023-09-18T12:34:15.936Z,2.17
2023-09-18T12:36:44.616Z,2.83
2023-09-18T12:39:22.017Z,2.85
2023-09-18T12:41:49.958Z,2.40
2023-09-18T12:44:18.368Z,2.72
2023-09-18T12:46:46.136Z,2.17
2023-09-18T12:49:25.126Z,1.80
2023-09-18T12:52:07.532Z,2.15
2023-09-18T12:54:55.008Z,1.98
2023-09-18T12:57:22.344Z,2.05
2023-09-18T12:59:52.620Z,2.35
2023-09-18T13:02:20.349Z,2.40
2023-09-18T13:04:54.623Z,2.08
2023-09-18T13:07:22.397Z,2.00
2023-09-18T13:10:02.354Z,1.70
2023-09-18T13:12:54.796Z,1.73
2023-09-18T13:15:28.393Z,2.63
2023-09-18T13:17:56.053Z,2.08
2023-09-18T13:20:25.649Z,2.08
2023-09-18T13:22:53.704Z,1.90
2023-09-18T13:25:24.636Z,2.03
2023-09-18T13:27:52.420Z,2.70
2023-09-18T13:30:21.584Z,3.03
2023-09-18T13:32:51.972Z,2.25
2023-09-18T13:35:20.308Z,2.35
2023-09-18T13:37:47.963Z,1.70
2023-09-18T13:40:17.179Z,2.10
2023-09-18T13:42:44.468Z,1.90
2023-09-18T13:45:17.328Z,1.90
2023-09-18T13:47:44.797Z,1.90
2023-09-18T13:50:12.381Z,1.77
2023-09-18T13:52:39.611Z,2.35
2023-09-18T13:55:07.253Z,2.10
2023-09-18T13:57:34.826Z,2.13
2023-09-18T14:00:06.079Z,1.88
2023-09-18T14:02:43.337Z,2.13
2023-09-18T14:05:18.094Z,1.65
2023-09-18T14:07:49.013Z,1.85
2023-09-18T14:10:19.016Z,1.80
2023-09-18T14:12:48.750Z,2.10
2023-09-18T14:15:16.202Z,2.58
2023-09-18T14:17:43.553Z,2.03
2023-09-18T14:20:11.744Z,2.05
2023-09-18T14:22:39.336Z,1.65
2023-09-18T14:25:07.899Z,2.65
2023-09-18T14:27:36.501Z,1.98
2023-09-18T14:30:08.210Z,1.83
2023-09-18T14:32:38.160Z,1.85
2023-09-18T14:35:09.839Z,1.60
2023-09-18T14:37:38.019Z,2.00
2023-09-18T14:40:05.596Z,1.60
2023-09-18T14:42:40.287Z,1.63
2023-09-18T14:45:07.800Z,2.00
2023-09-18T14:47:35.313Z,2.15
2023-09-18T14:50:03.277Z,1.73
2023-09-18T14:52:31.182Z,2.20
2023-09-18T14:54:58.574Z,1.55
2023-09-18T14:57:26.404Z,1.67
2023-09-18T14:59:53.826Z,1.60
2023-09-18T15:02:21.426Z,1.90
2023-09-18T15:04:51.130Z,2.10
2023-09-18T15:07:20.093Z,1.92
2023-09-18T15:09:49.708Z,2.17
2023-09-18T15:12:17.040Z,1.85
2023-09-18T15:14:44.446Z,1.67
2023-09-18T15:17:12.701Z,1.58
2023-09-18T15:19:43.511Z,1.90
2023-09-18T15:22:11.535Z,1.80
2023-09-18T15:24:38.893Z,1.85
2023-09-18T15:27:09.667Z,1.50
2023-09-18T15:29:42.335Z,2.15
2023-09-18T15:32:10.131Z,1.58
2023-09-18T15:34:40.009Z,1.63
2023-09-18T15:37:08.228Z,1.60
2023-09-18T15:39:38.595Z,1.67
2023-09-18T15:42:05.977Z,1.60
2023-09-18T15:44:35.203Z,1.88
2023-09-18T15:47:02.663Z,2.00
2023-09-18T15:49:29.939Z,1.63
2023-09-18T15:51:59.616Z,2.10
2023-09-18T15:54:27.976Z,2.25
2023-09-18T15:56:57.706Z,2.10
2023-09-18T15:59:25.032Z,2.20
2023-09-18T16:01:52.811Z,4.18
2023-09-18T16:04:20.357Z,2.30
2023-09-18T16:06:47.747Z,1.90
2023-09-18T16:09:15.197Z,1.88
2023-09-18T16:11:47.936Z,1.85
2023-09-18T16:14:16.198Z,1.75
2023-09-18T16:16:44.959Z,2.50
2023-09-18T16:19:12.205Z,1.63
2023-09-18T16:21:39.586Z,2.53
2023-09-18T16:24:08.162Z,1.52
2023-09-18T16:26:35.478Z,1.80
2023-09-18T16:29:02.862Z,1.75
2023-09-18T16:31:30.600Z,1.67
2023-09-18T16:33:58.002Z,1.40
2023-09-18T16:36:27.186Z,1.83
2023-09-18T16:38:54.409Z,1.90
2023-09-18T16:41:21.648Z,1.67
2023-09-18T16:43:48.852Z,1.75
2023-09-18T16:46:16.153Z,2.00
2023-09-18T16:48:44.136Z,1.40
2023-09-18T16:51:11.659Z,1.85
2023-09-18T16:53:39.771Z,1.80
2023-09-18T16:56:07.207Z,1.60
2023-09-18T16:58:34.424Z,1.80
2023-09-18T17:01:03.890Z,1.77
